createdAt,value
2022-11-26T00:01:22.415Z,3.00
2022-11-26T00:03:49.820Z,3.03
2022-11-26T00:06:30.013Z,2.65
2022-11-26T00:08:57.022Z,3.13
2022-11-26T00:11:24.058Z,2.83
2022-11-26T00:13:50.871Z,2.70
2022-11-26T00:16:17.899Z,2.78
2022-11-26T00:18:44.695Z,2.85
2022-11-26T00:21:18.138Z,3.30
2022-11-26T00:23:45.286Z,3.60
2022-11-26T00:26:18.855Z,2.87
2022-11-26T00:28:51.158Z,3.00
2022-11-26T00:31:18.577Z,3.95
2022-11-26T00:33:45.520Z,3.10
2022-11-26T00:36:28.511Z,2.58
2022-11-26T00:39:00.614Z,2.73
2022-11-26T00:41:32.001Z,2.42
2022-11-26T00:43:58.958Z,2.60
2022-11-26T00:46:25.839Z,3.33
2022-11-26T00:48:52.686Z,2.85
2022-11-26T00:51:26.203Z,2.43
2022-11-26T00:53:55.846Z,2.80
2022-11-26T00:56:23.625Z,2.33
2022-11-26T00:58:51.046Z,2.35
2022-11-26T01:01:21.417Z,2.88
2022-11-26T01:03:48.345Z,2.40
2022-11-26T01:06:20.423Z,3.30
2022-11-26T01:08:48.157Z,3.35
2022-11-26T01:11:18.295Z,2.83
2022-11-26T01:13:46.273Z,3.13
2022-11-26T01:16:19.141Z,2.63
2022-11-26T01:18:46.952Z,3.40
2022-11-26T01:21:14.192Z,3.40
2022-11-26T01:23:41.052Z,2.95
2022-11-26T01:26:15.901Z,3.13
2022-11-26T01:28:42.866Z,3.17
2022-11-26T01:31:21.438Z,3.05
2022-11-26T01:33:49.122Z,3.13
2022-11-26T01:36:48.320Z,2.35
2022-11-26T01:39:18.166Z,2.58
2022-11-26T01:42:07.496Z,2.63
2022-11-26T01:44:37.403Z,3.47
2022-11-26T01:47:26.316Z,3.38
2022-11-26T01:50:30.914Z,3.45
2022-11-26T01:53:13.425Z,3.08
2022-11-26T01:55:45.296Z,4.10
2022-11-26T01:58:16.303Z,3.42
2022-11-26T02:00:43.531Z,3.97
2022-11-26T02:03:11.196Z,3.70
2022-11-26T02:05:52.343Z,4.07
2022-11-26T02:08:19.388Z,4.57
2022-11-26T02:10:46.436Z,3.70
2022-11-26T02:13:13.388Z,4.07
2022-11-26T02:16:06.337Z,5.00
2022-11-26T02:18:42.334Z,4.47
2022-11-26T02:21:15.571Z,4.30
2022-11-26T02:23:51.587Z,3.88
2022-11-26T02:26:37.868Z,5.57
2022-11-26T02:29:45.932Z,4.97
2022-11-26T02:32:21.798Z,4.75
2022-11-26T02:34:55.511Z,4.90
2022-11-26T02:37:28.085Z,5.07
2022-11-26T02:39:57.877Z,4.25
2022-11-26T02:42:33.913Z,4.63
2022-11-26T02:45:09.095Z,4.95
2022-11-26T02:47:38.658Z,4.43
2022-11-26T02:50:12.412Z,4.63
2022-11-26T02:52:42.545Z,5.25
2022-11-26T02:55:13.469Z,5.15
2022-11-26T02:57:48.797Z,5.03
2022-11-26T03:00:17.260Z,5.47
2022-11-26T03:02:48.807Z,4.85
2022-11-26T03:05:18.522Z,4.65
2022-11-26T03:07:49.612Z,5.38
2022-11-26T03:10:16.764Z,4.80
2022-11-26T03:12:43.633Z,4.93
2022-11-26T03:15:11.398Z,5.28
2022-11-26T03:17:38.226Z,5.28
2022-11-26T03:20:05.865Z,5.45
2022-11-26T03:22:32.701Z,4.72
2022-11-26T03:24:59.486Z,4.33
2022-11-26T03:27:26.380Z,5.03
2022-11-26T03:29:53.343Z,5.18
2022-11-26T03:32:20.167Z,4.85
2022-11-26T03:34:47.097Z,5.45
2022-11-26T03:37:14.344Z,4.73
2022-11-26T03:39:41.261Z,4.88
2022-11-26T03:42:08.154Z,4.20
2022-11-26T03:44:35.204Z,4.35
2022-11-26T03:47:02.282Z,3.67
2022-11-26T03:49:29.084Z,4.93
2022-11-26T03:51:56.072Z,4.30
2022-11-26T03:54:23.206Z,4.57
2022-11-26T03:56:50.053Z,4.75
2022-11-26T03:59:16.897Z,4.85
2022-11-26T04:01:44.885Z,4.60
2022-11-26T04:04:11.739Z,5.28
2022-11-26T04:06:38.981Z,4.75
2022-11-26T04:09:05.941Z,4.85
2022-11-26T04:11:32.853Z,4.45
2022-11-26T04:13:59.810Z,4.70
2022-11-26T04:16:26.734Z,4.75
2022-11-26T04:18:53.703Z,4.20
2022-11-26T04:21:20.457Z,4.75
2022-11-26T04:23:47.668Z,4.70
2022-11-26T04:26:14.823Z,4.63
2022-11-26T04:28:41.772Z,4.65
2022-11-26T04:31:08.674Z,5.15
2022-11-26T04:33:35.541Z,4.68
2022-11-26T04:36:02.561Z,5.05
2022-11-26T04:38:29.445Z,5.10
2022-11-26T04:40:56.194Z,5.38
2022-11-26T04:43:23.072Z,4.90
2022-11-26T04:45:49.907Z,5.10
2022-11-26T04:48:16.857Z,5.18
2022-11-26T04:50:43.662Z,4.30
2022-11-26T04:53:10.919Z,4.88
2022-11-26T04:55:37.958Z,4.90
2022-11-26T04:58:04.756Z,4.93
2022-11-26T05:00:31.792Z,5.05
2022-11-26T05:02:58.687Z,4.87
2022-11-26T05:05:27.944Z,4.10
2022-11-26T05:07:54.898Z,3.95
2022-11-26T05:10:21.894Z,3.75
2022-11-26T05:12:48.662Z,4.30
2022-11-26T05:15:15.689Z,4.70
2022-11-26T05:17:42.539Z,4.68
2022-11-26T05:20:09.856Z,4.38
2022-11-26T05:22:36.855Z,4.40
2022-11-26T05:25:04.172Z,4.80
2022-11-26T05:27:31.134Z,4.50
2022-11-26T05:29:57.905Z,4.47
2022-11-26T05:32:24.706Z,5.45
2022-11-26T05:34:54.505Z,5.95
2022-11-26T05:37:25.707Z,5.63
2022-11-26T05:39:52.537Z,5.83
2022-11-26T05:42:19.386Z,4.75
2022-11-26T05:44:46.209Z,7.78
2022-11-26T05:47:13.037Z,4.72
2022-11-26T05:49:39.869Z,4.10
2022-11-26T05:52:06.702Z,4.23
2022-11-26T05:54:33.590Z,4.57
2022-11-26T05:57:00.651Z,4.65
2022-11-26T05:59:28.041Z,5.28
2022-11-26T06:01:54.977Z,5.00
2022-11-26T06:04:21.837Z,5.30
2022-11-26T06:06:48.802Z,5.53
2022-11-26T06:09:15.683Z,6.50
2022-11-26T06:11:42.489Z,5.70
2022-11-26T06:14:10.671Z,6.55
2022-11-26T06:16:37.808Z,6.20
2022-11-26T06:19:04.801Z,5.70
2022-11-26T06:21:31.640Z,5.70
2022-11-26T06:23:59.742Z,5.70
2022-11-26T06:26:27.278Z,6.18
2022-11-26T06:28:54.517Z,6.10
2022-11-26T06:31:21.577Z,6.45
2022-11-26T06:33:48.553Z,6.28
2022-11-26T06:36:15.360Z,5.93
2022-11-26T06:38:42.180Z,5.68
2022-11-26T06:41:09.421Z,5.83
2022-11-26T06:43:36.400Z,6.00
2022-11-26T06:46:05.478Z,6.13
2022-11-26T06:48:33.256Z,5.35
2022-11-26T06:51:20.713Z,6.40
2022-11-26T06:53:51.012Z,7.50
2022-11-26T06:56:19.292Z,5.78
2022-11-26T06:58:50.942Z,6.47
2022-11-26T07:01:20.918Z,5.78
2022-11-26T07:03:47.897Z,5.88
2022-11-26T07:06:24.522Z,5.80
2022-11-26T07:08:53.257Z,5.53
2022-11-26T07:11:21.102Z,6.22
2022-11-26T07:13:48.016Z,7.13
2022-11-26T07:16:15.138Z,6.57
2022-11-26T07:18:42.683Z,6.10
2022-11-26T07:21:13.217Z,6.40
2022-11-26T07:23:40.885Z,6.35
2022-11-26T07:26:09.828Z,6.93
2022-11-26T07:28:36.917Z,7.10
2022-11-26T07:31:14.683Z,7.13
2022-11-26T07:33:44.443Z,6.18
2022-11-26T07:36:20.972Z,6.63
2022-11-26T07:38:48.192Z,7.15
2022-11-26T07:41:19.330Z,6.22
2022-11-26T07:43:47.062Z,6.97
2022-11-26T07:46:17.307Z,5.85
2022-11-26T07:48:44.576Z,6.38
2022-11-26T07:51:20.518Z,6.53
2022-11-26T07:53:48.331Z,7.22
2022-11-26T07:56:15.700Z,5.83
2022-11-26T07:58:43.119Z,7.18
2022-11-26T08:01:18.529Z,6.78
2022-11-26T08:03:47.460Z,6.60
2022-11-26T08:06:20.669Z,6.28
2022-11-26T08:08:47.905Z,6.23
2022-11-26T08:11:23.338Z,7.28
2022-11-26T08:13:54.171Z,7.15
2022-11-26T08:16:21.121Z,6.55
2022-11-26T08:18:48.338Z,6.70
2022-11-26T08:21:15.167Z,6.27
2022-11-26T08:23:41.975Z,6.05
2022-11-26T08:26:34.567Z,6.57
2022-11-26T08:29:00.680Z,5.78
2022-11-26T08:31:28.319Z,6.95
2022-11-26T08:33:59.868Z,6.27
2022-11-26T08:36:28.371Z,6.20
2022-11-26T08:38:55.429Z,6.28
2022-11-26T08:41:23.426Z,6.60
2022-11-26T08:44:07.817Z,7.05
2022-11-26T08:46:37.497Z,5.80
2022-11-26T08:49:04.793Z,6.50
2022-11-26T08:51:31.705Z,5.88
2022-11-26T08:53:58.512Z,5.25
2022-11-26T08:56:26.294Z,6.18
2022-11-26T08:58:53.140Z,5.37
2022-11-26T09:01:22.966Z,6.07
2022-11-26T09:03:51.245Z,5.53
2022-11-26T09:06:19.106Z,5.70
2022-11-26T09:09:04.901Z,6.25
2022-11-26T09:11:33.432Z,5.60
2022-11-26T09:14:00.379Z,5.53
2022-11-26T09:16:27.562Z,5.93
2022-11-26T09:18:54.899Z,4.95
2022-11-26T09:21:22.673Z,5.25
2022-11-26T09:23:49.649Z,5.20
2022-11-26T09:26:16.605Z,5.50
2022-11-26T09:28:43.427Z,5.45
2022-11-26T09:31:10.298Z,4.65
2022-11-26T09:33:37.112Z,5.25
2022-11-26T09:36:09.422Z,5.17
2022-11-26T09:38:37.208Z,4.78
2022-11-26T09:41:41.450Z,5.07
2022-11-26T09:44:37.110Z,4.82
2022-11-26T09:47:18.551Z,5.57
2022-11-26T09:50:13.386Z,5.10
2022-11-26T09:52:58.052Z,4.80
2022-11-26T09:55:31.378Z,4.90
2022-11-26T09:58:05.195Z,4.38
2022-11-26T10:00:39.993Z,4.80
2022-11-26T10:03:24.259Z,5.43
2022-11-26T10:06:09.843Z,4.93
2022-11-26T10:08:54.794Z,5.32
2022-11-26T10:11:48.249Z,5.63
2022-11-26T10:14:33.814Z,5.15
2022-11-26T10:17:25.771Z,4.80
2022-11-26T10:20:02.904Z,4.85
2022-11-26T10:22:56.869Z,5.03
2022-11-26T10:25:28.506Z,4.63
2022-11-26T10:27:59.661Z,6.00
2022-11-26T10:30:29.521Z,5.40
2022-11-26T10:33:01.107Z,5.53
2022-11-26T10:35:29.593Z,5.60
2022-11-26T10:37:57.627Z,4.88
2022-11-26T10:40:30.728Z,5.25
2022-11-26T10:43:08.632Z,5.00
2022-11-26T10:45:41.722Z,5.47
2022-11-26T10:48:33.259Z,5.07
2022-11-26T10:51:30.486Z,5.07
2022-11-26T10:54:00.439Z,5.88
2022-11-26T10:56:48.008Z,5.33
2022-11-26T10:59:24.274Z,5.20
2022-11-26T11:01:56.045Z,5.03
2022-11-26T11:04:30.965Z,5.30
2022-11-26T11:06:58.864Z,4.97
2022-11-26T11:09:29.662Z,4.67
2022-11-26T11:12:11.785Z,4.60
2022-11-26T11:14:42.987Z,4.38
2022-11-26T11:17:29.786Z,4.53
2022-11-26T11:20:22.306Z,4.63
2022-11-26T11:23:17.183Z,4.10
2022-11-26T11:26:04.281Z,4.05
2022-11-26T11:28:33.833Z,4.65
2022-11-26T11:31:22.164Z,3.90
2022-11-26T11:33:50.162Z,4.72
2022-11-26T11:36:28.751Z,3.93
2022-11-26T11:39:03.941Z,4.03
2022-11-26T11:41:45.994Z,4.47
2022-11-26T11:44:20.841Z,3.95
2022-11-26T11:47:02.223Z,4.53
2022-11-26T11:49:35.034Z,3.63
2022-11-26T11:52:35.619Z,4.05
2022-11-26T11:55:24.624Z,3.70
2022-11-26T11:58:24.136Z,5.28
2022-11-26T12:01:04.936Z,4.65
2022-11-26T12:03:53.541Z,3.90
2022-11-26T12:06:32.345Z,3.92
2022-11-26T12:09:07.360Z,3.90
2022-11-26T12:11:52.429Z,4.28
2022-11-26T12:14:33.525Z,3.60
2022-11-26T12:17:12.303Z,4.20
2022-11-26T12:19:54.925Z,4.00
2022-11-26T12:22:44.783Z,4.10
2022-11-26T12:25:17.603Z,3.88
2022-11-26T12:27:52.781Z,4.78
2022-11-26T12:30:23.035Z,4.03
2022-11-26T12:32:57.369Z,4.28
2022-11-26T12:35:36.714Z,4.07
2022-11-26T12:38:25.380Z,4.05
2022-11-26T12:41:07.836Z,4.30
2022-11-26T12:44:13.493Z,3.70
2022-11-26T12:46:47.543Z,5.47
2022-11-26T12:49:33.089Z,4.15
2022-11-26T12:52:17.645Z,3.38
2022-11-26T12:54:54.519Z,3.05
2022-11-26T12:57:28.451Z,4.03
2022-11-26T13:00:08.348Z,3.88
2022-11-26T13:02:38.393Z,3.30
2022-11-26T13:05:06.147Z,3.53
2022-11-26T13:08:02.926Z,3.45
2022-11-26T13:10:48.074Z,3.47
2022-11-26T13:13:36.049Z,3.40
2022-11-26T13:16:15.026Z,2.75
2022-11-26T13:18:47.914Z,2.80
2022-11-26T13:21:27.944Z,3.17
2022-11-26T13:24:28.774Z,3.50
2022-11-26T13:27:33.260Z,2.80
2022-11-26T13:30:21.347Z,3.05
2022-11-26T13:33:40.851Z,2.75
2022-11-26T13:36:18.511Z,2.72
2022-11-26T13:39:18.872Z,2.87
2022-11-26T13:41:51.791Z,3.78
2022-11-26T13:44:18.599Z,2.92
2022-11-26T13:47:04.628Z,3.13
2022-11-26T13:49:39.526Z,3.35
2022-11-26T13:52:34.483Z,3.00
2022-11-26T13:55:33.330Z,3.10
2022-11-26T13:58:05.368Z,3.97
2022-11-26T14:00:34.402Z,3.22
2022-11-26T14:03:03.084Z,3.00
2022-11-26T14:06:01.357Z,3.57
2022-11-26T14:08:41.738Z,3.17
2022-11-26T14:11:09.429Z,3.10
2022-11-26T14:13:36.619Z,2.80
2022-11-26T14:16:10.365Z,2.95
2022-11-26T14:18:49.454Z,2.90
2022-11-26T14:21:17.997Z,3.13
2022-11-26T14:23:47.753Z,2.70
2022-11-26T14:26:19.963Z,2.70
2022-11-26T14:28:48.731Z,3.20
2022-11-26T14:31:15.678Z,3.10
2022-11-26T14:33:45.415Z,3.22
2022-11-26T14:36:27.111Z,3.05
2022-11-26T14:39:05.572Z,2.33
2022-11-26T14:41:51.876Z,3.00
2022-11-26T14:44:19.841Z,3.30
2022-11-26T14:46:50.992Z,2.80
2022-11-26T14:49:20.849Z,2.78
2022-11-26T14:51:53.686Z,3.00
2022-11-26T14:54:32.154Z,2.90
2022-11-26T14:57:06.217Z,2.67
2022-11-26T14:59:33.511Z,2.55
2022-11-26T15:02:00.444Z,3.13
2022-11-26T15:04:38.989Z,3.00
2022-11-26T15:07:07.369Z,2.80
2022-11-26T15:09:34.349Z,3.10
2022-11-26T15:12:16.525Z,2.90
2022-11-26T15:14:47.754Z,2.78
2022-11-26T15:17:17.813Z,2.97
2022-11-26T15:19:45.786Z,2.80
2022-11-26T15:22:35.533Z,2.90
2022-11-26T15:25:02.532Z,3.17
2022-11-26T15:27:38.465Z,3.33
2022-11-26T15:30:18.927Z,2.70
2022-11-26T15:32:45.960Z,3.22
2022-11-26T15:35:15.408Z,3.33
2022-11-26T15:37:42.655Z,3.60
2022-11-26T15:40:33.507Z,3.47
2022-11-26T15:43:05.352Z,3.63
2022-11-26T15:45:40.970Z,3.28
2022-11-26T15:48:28.140Z,3.33
2022-11-26T15:51:06.172Z,3.30
2022-11-26T15:53:37.430Z,3.05
2022-11-26T15:56:05.975Z,3.53
2022-11-26T15:58:38.927Z,3.67
2022-11-26T16:01:16.318Z,3.30
2022-11-26T16:03:47.494Z,3.22
2022-11-26T16:06:43.814Z,3.90
2022-11-26T16:09:14.773Z,3.75
2022-11-26T16:11:58.127Z,3.67
2022-11-26T16:14:35.746Z,3.60
2022-11-26T16:17:15.475Z,4.43
2022-11-26T16:19:55.027Z,3.90
2022-11-26T16:22:28.334Z,3.45
2022-11-26T16:25:04.684Z,3.17
2022-11-26T16:27:33.332Z,3.80
2022-11-26T16:30:06.844Z,3.80
2022-11-26T16:32:33.690Z,3.25
2022-11-26T16:35:12.179Z,3.55
2022-11-26T16:37:45.504Z,3.53
2022-11-26T16:40:19.208Z,3.30
2022-11-26T16:42:47.250Z,3.38
2022-11-26T16:45:14.854Z,3.90
2022-11-26T16:47:45.128Z,3.42
2022-11-26T16:50:26.876Z,3.25
2022-11-26T16:52:55.261Z,3.37
2022-11-26T16:55:27.377Z,3.42
2022-11-26T16:58:00.296Z,4.40
2022-11-26T17:00:27.876Z,3.55
2022-11-26T17:02:55.196Z,4.22
2022-11-26T17:05:22.927Z,3.87
2022-11-26T17:07:54.054Z,3.72
2022-11-26T17:10:23.602Z,3.50
2022-11-26T17:12:50.821Z,3.83
2022-11-26T17:15:18.401Z,3.88
2022-11-26T17:17:45.668Z,3.63
2022-11-26T17:20:22.668Z,3.30
2022-11-26T17:22:49.693Z,3.75
2022-11-26T17:25:16.651Z,3.47
2022-11-26T17:27:44.301Z,3.72
2022-11-26T17:30:23.835Z,3.70
2022-11-26T17:32:51.832Z,3.85
2022-11-26T17:35:19.151Z,3.92
2022-11-26T17:37:46.477Z,3.30
2022-11-26T17:40:19.747Z,2.92
2022-11-26T17:42:47.133Z,3.93
2022-11-26T17:45:14.779Z,3.22
2022-11-26T17:47:42.419Z,3.30
2022-11-26T17:50:22.713Z,3.30
2022-11-26T17:52:50.337Z,3.30
2022-11-26T17:55:18.379Z,3.27
2022-11-26T17:57:45.289Z,3.42
2022-11-26T18:00:16.375Z,3.17
2022-11-26T18:02:43.983Z,3.20
2022-11-26T18:05:11.587Z,2.88
2022-11-26T18:07:39.633Z,2.90
2022-11-26T18:10:11.399Z,2.63
2022-11-26T18:12:38.803Z,3.35
2022-11-26T18:15:06.701Z,3.10
2022-11-26T18:17:33.541Z,2.75
2022-11-26T18:20:00.395Z,2.93
2022-11-26T18:22:28.325Z,2.75
2022-11-26T18:24:57.348Z,3.00
2022-11-26T18:27:29.398Z,3.53
2022-11-26T18:29:56.262Z,2.70
2022-11-26T18:32:23.015Z,3.10
2022-11-26T18:34:50.858Z,2.97
2022-11-26T18:37:18.462Z,3.33
2022-11-26T18:39:45.482Z,3.42
2022-11-26T18:45:00.957Z,3.10
2022-11-26T18:47:27.793Z,3.63
2022-11-26T18:49:54.738Z,2.95
2022-11-26T18:52:21.658Z,3.50
2022-11-26T18:54:48.600Z,3.53
2022-11-26T18:57:15.378Z,4.10
2022-11-26T18:59:42.549Z,2.58
2022-11-26T19:02:10.999Z,2.90
2022-11-26T19:04:39.228Z,3.35
2022-11-26T19:07:06.396Z,3.10
2022-11-26T19:09:33.257Z,2.93
2022-11-26T19:12:00.111Z,3.05
2022-11-26T19:14:27.110Z,2.90
2022-11-26T19:16:54.020Z,3.50
2022-11-26T19:19:20.865Z,3.30
2022-11-26T19:21:47.743Z,2.50
2022-11-26T19:24:15.145Z,3.40
2022-11-26T19:26:42.339Z,3.20
2022-11-26T19:29:12.204Z,2.95
2022-11-26T19:31:40.067Z,2.75
2022-11-26T19:34:14.494Z,3.53
2022-11-26T19:36:41.889Z,3.17
2022-11-26T19:39:09.126Z,2.80
2022-11-26T19:41:36.022Z,3.33
2022-11-26T19:44:05.572Z,3.10
2022-11-26T19:46:32.995Z,2.83
2022-11-26T19:48:59.894Z,2.70
2022-11-26T19:51:27.877Z,3.50
2022-11-26T19:53:56.440Z,3.25
2022-11-26T19:56:29.024Z,3.00
2022-11-26T19:59:02.350Z,2.70
2022-11-26T20:01:31.644Z,3.28
2022-11-26T20:04:00.472Z,2.95
2022-11-26T20:06:28.826Z,3.10
2022-11-26T20:08:58.218Z,3.15
2022-11-26T20:11:25.601Z,2.63
2022-11-26T20:13:52.546Z,2.80
2022-11-26T20:16:30.623Z,3.10
2022-11-26T20:18:58.867Z,3.00
2022-11-26T20:21:28.199Z,2.97
2022-11-26T20:23:58.038Z,3.33
2022-11-26T20:26:31.421Z,3.00
2022-11-26T20:29:07.493Z,2.95
2022-11-26T20:31:35.225Z,3.15
2022-11-26T20:34:03.302Z,3.42
2022-11-26T20:36:30.827Z,3.27
2022-11-26T20:39:01.514Z,3.38
2022-11-26T20:41:29.411Z,3.40
2022-11-26T20:43:58.990Z,2.90
2022-11-26T20:46:28.761Z,3.60
2022-11-26T20:48:56.738Z,3.00
2022-11-26T20:51:24.213Z,3.88
2022-11-26T20:53:52.428Z,3.53
2022-11-26T20:56:21.560Z,3.40
2022-11-26T20:58:48.782Z,2.90
2022-11-26T21:01:18.050Z,2.90
2022-11-26T21:03:45.300Z,3.28
2022-11-26T21:06:17.758Z,3.33
2022-11-26T21:08:45.007Z,2.67
2022-11-26T21:11:13.009Z,2.35
2022-11-26T21:13:40.700Z,3.00
2022-11-26T21:16:11.822Z,2.80
2022-11-26T21:18:38.862Z,3.17
2022-11-26T21:21:16.740Z,3.72
2022-11-26T21:23:44.776Z,3.45
2022-11-26T21:26:16.862Z,3.33
2022-11-26T21:28:43.938Z,3.22
2022-11-26T21:31:14.911Z,3.20
2022-11-26T21:33:41.840Z,3.28
2022-11-26T21:36:15.425Z,3.15
2022-11-26T21:38:43.222Z,3.93
2022-11-26T21:41:12.683Z,3.10
2022-11-26T21:43:40.476Z,2.90
2022-11-26T21:46:09.724Z,2.63
2022-11-26T21:48:36.600Z,3.20
2022-11-26T21:51:12.584Z,3.13
2022-11-26T21:53:39.731Z,3.35
2022-11-26T21:56:09.727Z,3.05
2022-11-26T21:58:37.360Z,3.15
2022-11-26T22:01:13.353Z,3.17
2022-11-26T22:03:42.180Z,3.40
2022-11-26T22:06:09.459Z,2.88
2022-11-26T22:08:36.650Z,3.42
2022-11-26T22:11:15.491Z,2.72
2022-11-26T22:13:42.523Z,2.83
2022-11-26T22:16:10.625Z,2.97
2022-11-26T22:18:41.974Z,3.47
2022-11-26T22:21:18.492Z,3.20
2022-11-26T22:23:45.827Z,2.83
2022-11-26T22:26:12.820Z,2.60
2022-11-26T22:28:39.831Z,2.77
2022-11-26T22:31:17.811Z,3.10
2022-11-26T22:33:44.847Z,2.78
2022-11-26T22:36:11.777Z,3.50
2022-11-26T22:38:40.032Z,3.13
2022-11-26T22:41:10.314Z,2.90
2022-11-26T22:43:37.745Z,2.70
2022-11-26T22:46:06.081Z,3.15
2022-11-26T22:48:34.483Z,2.25
2022-11-26T22:51:02.072Z,3.00
2022-11-26T22:53:29.066Z,3.03
2022-11-26T22:55:58.256Z,2.67
2022-11-26T22:58:26.794Z,3.38
2022-11-26T23:01:00.235Z,3.22
2022-11-26T23:03:29.334Z,2.75
2022-11-26T23:05:56.399Z,3.00
2022-11-26T23:08:23.197Z,2.53
2022-11-26T23:10:50.063Z,2.88
2022-11-26T23:13:17.712Z,2.80
2022-11-26T23:15:46.125Z,2.60
2022-11-26T23:18:14.947Z,2.83
2022-11-26T23:20:43.169Z,3.00
2022-11-26T23:23:10.358Z,2.65
2022-11-26T23:25:41.628Z,2.72
2022-11-26T23:28:09.340Z,2.95
2022-11-26T23:30:36.427Z,2.50
2022-11-26T23:33:03.349Z,2.50
2022-11-26T23:35:30.217Z,2.45
2022-11-26T23:37:57.096Z,2.63
2022-11-26T23:40:24.100Z,2.63
2022-11-26T23:42:50.918Z,3.37
2022-11-26T23:45:17.939Z,2.90
2022-11-26T23:47:44.824Z,2.65
2022-11-26T23:50:12.345Z,2.95
2022-11-26T23:52:40.823Z,2.90
2022-11-26T23:55:08.050Z,2.17
2022-11-26T23:57:34.982Z,3.22
